createdAt,value
2023-02-26T00:01:55.559Z,20.20
2023-02-26T00:04:25.363Z,20.20
2023-02-26T00:06:57.009Z,20.20
2023-02-26T00:09:26.371Z,20.20
2023-02-26T00:11:57.004Z,20.20
2023-02-26T00:14:27.317Z,20.20
2023-02-26T00:16:58.689Z,20.20
2023-02-26T00:19:28.808Z,20.20
2023-02-26T00:21:59.100Z,20.20
2023-02-26T00:24:29.050Z,20.20
2023-02-26T00:26:59.161Z,20.10
2023-02-26T00:29:29.370Z,20.10
2023-02-26T00:32:19.390Z,20.20
2023-02-26T00:34:49.965Z,20.20
2023-02-26T00:37:21.042Z,20.20
2023-02-26T00:39:52.286Z,20.30
2023-02-26T00:42:23.533Z,20.30
2023-02-26T00:44:53.956Z,20.40
2023-02-26T00:47:28.269Z,20.40
2023-02-26T00:50:05.274Z,20.50
2023-02-26T00:52:36.195Z,20.50
2023-02-26T00:55:09.095Z,20.60
2023-02-26T00:57:39.020Z,20.70
2023-02-26T01:00:09.286Z,20.70
2023-02-26T01:02:39.767Z,20.80
2023-02-26T01:05:16.821Z,20.80
2023-02-26T01:07:47.980Z,20.80
2023-02-26T01:10:18.353Z,20.80
2023-02-26T01:12:49.040Z,20.90
2023-02-26T01:15:20.488Z,20.80
2023-02-26T01:17:54.744Z,20.90
2023-02-26T01:20:25.793Z,20.90
2023-02-26T01:22:59.958Z,21.00
2023-02-26T01:25:30.995Z,21.00
2023-02-26T01:28:01.110Z,21.10
2023-02-26T01:30:38.417Z,21.10
2023-02-26T01:33:26.024Z,21.10
2023-02-26T01:35:57.266Z,21.10
2023-02-26T01:38:43.682Z,21.10
2023-02-26T01:41:17.625Z,21.20
2023-02-26T01:43:57.244Z,21.20
2023-02-26T01:46:44.582Z,21.30
2023-02-26T01:49:18.779Z,21.30
2023-02-26T01:51:49.740Z,21.30
2023-02-26T01:54:21.718Z,21.40
2023-02-26T01:57:03.155Z,21.40
2023-02-26T01:59:34.013Z,21.50
2023-02-26T02:02:05.131Z,21.60
2023-02-26T02:04:35.486Z,21.60
2023-02-26T02:07:05.965Z,21.60
2023-02-26T02:09:38.371Z,21.60
2023-02-26T02:12:12.508Z,21.70
2023-02-26T02:14:59.381Z,21.70
2023-02-26T02:17:31.038Z,21.80
2023-02-26T02:20:11.705Z,21.90
2023-02-26T02:23:00.880Z,22.00
2023-02-26T02:25:48.610Z,22.00
2023-02-26T02:28:19.756Z,22.10
2023-02-26T02:30:54.121Z,22.20
2023-02-26T02:33:24.962Z,22.30
2023-02-26T02:35:58.965Z,22.40
2023-02-26T02:38:30.675Z,22.50
2023-02-26T02:41:02.128Z,22.60
2023-02-26T02:49:03.602Z,22.90
2023-02-26T02:51:43.607Z,22.90
2023-02-26T02:54:14.713Z,22.90
2023-02-26T02:56:48.435Z,23.00
2023-02-26T02:59:22.100Z,23.10
2023-02-26T03:02:12.008Z,23.10
2023-02-26T03:04:43.038Z,23.20
2023-02-26T03:07:12.870Z,23.20
2023-02-26T03:09:43.005Z,23.30
2023-02-26T03:12:12.809Z,23.40
2023-02-26T03:14:43.217Z,23.40
2023-02-26T03:17:23.495Z,23.50
2023-02-26T03:22:51.799Z,23.70
2023-02-26T03:25:23.123Z,23.90
2023-02-26T03:27:57.647Z,24.00
2023-02-26T03:30:38.254Z,24.10
2023-02-26T03:33:18.885Z,24.20
2023-02-26T03:35:55.748Z,24.30
2023-02-26T03:38:29.676Z,24.40
2023-02-26T03:41:03.794Z,24.50
2023-02-26T03:43:36.075Z,24.60
2023-02-26T03:46:07.144Z,24.70
2023-02-26T03:48:37.492Z,24.80
2023-02-26T03:51:10.092Z,24.90
2023-02-26T03:53:47.478Z,25.00
2023-02-26T03:56:21.595Z,25.00
2023-02-26T03:58:51.708Z,25.10
2023-02-26T04:01:24.542Z,25.10
2023-02-26T04:03:58.353Z,25.20
2023-02-26T04:06:28.474Z,25.20
2023-02-26T04:08:58.619Z,25.30
2023-02-26T04:11:29.460Z,25.40
2023-02-26T04:13:59.342Z,25.60
2023-02-26T04:16:29.297Z,25.70
2023-02-26T04:18:59.473Z,25.80
2023-02-26T04:21:29.355Z,25.90
2023-02-26T04:23:59.111Z,26.00
2023-02-26T04:26:49.047Z,26.20
2023-02-26T04:29:18.971Z,26.30
2023-02-26T04:31:48.908Z,26.40
2023-02-26T04:34:18.932Z,26.50
2023-02-26T04:36:48.835Z,26.50
2023-02-26T04:39:18.625Z,26.50
2023-02-26T04:41:48.752Z,26.60
2023-02-26T04:44:18.681Z,26.70
2023-02-26T04:46:50.894Z,26.90
2023-02-26T04:49:20.961Z,26.90
2023-02-26T04:51:51.029Z,27.00
2023-02-26T04:54:21.198Z,27.00
2023-02-26T04:56:51.145Z,27.10
2023-02-26T04:59:21.175Z,27.10
2023-02-26T05:01:51.473Z,27.10
2023-02-26T05:04:21.939Z,27.10
2023-02-26T05:06:51.877Z,27.20
2023-02-26T05:09:21.793Z,27.20
2023-02-26T05:11:51.876Z,27.30
2023-02-26T05:14:23.155Z,27.40
2023-02-26T05:16:53.157Z,27.40
2023-02-26T05:19:23.226Z,27.50
2023-02-26T05:21:53.678Z,27.60
2023-02-26T05:24:23.744Z,27.60
2023-02-26T05:26:54.269Z,27.60
2023-02-26T05:29:24.239Z,27.60
2023-02-26T05:31:54.287Z,27.70
2023-02-26T05:34:24.487Z,27.70
2023-02-26T05:36:54.588Z,27.80
2023-02-26T05:39:24.774Z,27.80
2023-02-26T05:41:56.116Z,27.90
2023-02-26T05:44:29.888Z,27.90
2023-02-26T05:46:59.803Z,28.00
2023-02-26T05:49:30.055Z,27.90
2023-02-26T05:52:00.004Z,28.00
2023-02-26T05:54:29.927Z,27.90
2023-02-26T05:56:59.987Z,28.00
2023-02-26T05:59:29.948Z,27.90
2023-02-26T06:02:00.046Z,28.00
2023-02-26T06:04:29.874Z,28.00
2023-02-26T06:07:06.528Z,28.00
2023-02-26T06:09:36.412Z,28.00
2023-02-26T06:12:06.292Z,28.00
2023-02-26T06:14:36.706Z,28.00
2023-02-26T06:17:06.901Z,28.00
2023-02-26T06:19:36.875Z,28.00
2023-02-26T06:22:06.965Z,28.00
2023-02-26T06:24:37.113Z,28.00
2023-02-26T06:27:07.063Z,28.00
2023-02-26T06:29:38.451Z,28.10
2023-02-26T06:32:08.611Z,28.10
2023-02-26T06:34:38.664Z,28.20
2023-02-26T06:37:08.890Z,28.20
2023-02-26T06:39:41.101Z,28.10
2023-02-26T06:42:11.093Z,28.10
2023-02-26T06:44:41.058Z,28.10
2023-02-26T06:47:12.391Z,28.10
2023-02-26T06:49:42.237Z,28.10
2023-02-26T06:52:12.262Z,28.10
2023-02-26T06:54:42.390Z,28.20
2023-02-26T06:57:12.613Z,28.20
2023-02-26T06:59:42.865Z,28.20
2023-02-26T07:02:14.008Z,28.20
2023-02-26T07:04:44.040Z,28.20
2023-02-26T07:07:14.332Z,28.30
2023-02-26T07:09:45.967Z,28.30
2023-02-26T07:12:15.998Z,28.20
2023-02-26T07:14:47.026Z,28.20
2023-02-26T07:17:18.148Z,28.20
2023-02-26T07:19:48.296Z,28.20
2023-02-26T07:22:19.755Z,28.20
2023-02-26T07:24:49.827Z,28.20
2023-02-26T07:27:20.366Z,28.20
2023-02-26T07:29:50.472Z,28.20
2023-02-26T07:32:20.637Z,28.20
2023-02-26T07:34:52.582Z,28.20
2023-02-26T07:37:22.022Z,28.20
2023-02-26T07:39:51.943Z,28.20
2023-02-26T07:42:22.085Z,28.20
2023-02-26T07:44:52.075Z,28.20
2023-02-26T07:47:22.176Z,28.20
2023-02-26T07:49:52.047Z,28.20
2023-02-26T07:52:21.875Z,28.20
2023-02-26T07:54:51.960Z,28.10
2023-02-26T07:57:23.857Z,28.10
2023-02-26T07:59:53.289Z,28.10
2023-02-26T08:02:24.445Z,28.00
2023-02-26T08:04:57.199Z,28.00
2023-02-26T08:07:27.162Z,28.00
2023-02-26T08:09:58.400Z,28.00
2023-02-26T08:12:28.407Z,28.00
2023-02-26T08:14:58.520Z,28.00
2023-02-26T08:17:28.633Z,28.00
2023-02-26T08:20:01.207Z,28.00
2023-02-26T08:22:33.756Z,28.00
2023-02-26T08:25:03.690Z,28.00
2023-02-26T08:27:36.780Z,28.00
2023-02-26T08:30:08.665Z,28.00
2023-02-26T08:32:41.301Z,28.00
2023-02-26T08:35:11.646Z,27.90
2023-02-26T08:37:41.528Z,28.00
2023-02-26T08:40:15.116Z,28.00
2023-02-26T08:42:44.356Z,28.00
2023-02-26T08:45:14.530Z,28.00
2023-02-26T08:47:55.482Z,28.00
2023-02-26T08:50:15.483Z,28.00
2023-02-26T08:52:45.251Z,28.00
2023-02-26T08:55:15.300Z,27.90
2023-02-26T08:57:45.696Z,28.00
2023-02-26T09:00:35.648Z,27.90
2023-02-26T09:03:06.168Z,27.90
2023-02-26T09:05:36.062Z,27.90
2023-02-26T09:08:06.086Z,27.90
2023-02-26T09:10:36.545Z,28.00
2023-02-26T09:13:07.966Z,28.00
2023-02-26T09:15:38.116Z,27.90
2023-02-26T09:18:07.981Z,28.00
2023-02-26T09:20:38.307Z,27.90
2023-02-26T09:23:08.237Z,27.80
2023-02-26T09:25:41.791Z,27.90
2023-02-26T09:28:11.776Z,27.80
2023-02-26T09:30:41.925Z,27.80
2023-02-26T09:33:11.748Z,27.80
2023-02-26T09:35:43.034Z,27.70
2023-02-26T09:38:16.083Z,27.70
2023-02-26T09:41:05.866Z,27.70
2023-02-26T09:43:53.780Z,27.60
2023-02-26T09:46:40.099Z,27.60
2023-02-26T09:49:14.228Z,27.60
2023-02-26T09:51:44.757Z,27.50
2023-02-26T09:54:15.797Z,27.50
2023-02-26T09:56:46.014Z,27.50
2023-02-26T09:59:15.968Z,27.50
2023-02-26T10:01:53.080Z,27.40
2023-02-26T10:04:25.046Z,27.50
2023-02-26T10:06:56.385Z,27.40
2023-02-26T10:09:27.377Z,27.40
2023-02-26T10:12:01.294Z,27.40
2023-02-26T10:14:32.722Z,27.30
2023-02-26T10:17:03.989Z,27.30
2023-02-26T10:22:10.022Z,27.20
2023-02-26T10:22:14.816Z,27.30
2023-02-26T10:24:41.245Z,27.20
2023-02-26T10:27:24.423Z,27.20
2023-02-26T10:30:04.126Z,27.10
2023-02-26T10:32:37.098Z,27.10
2023-02-26T10:35:09.553Z,27.00
2023-02-26T10:37:40.409Z,27.00
2023-02-26T10:40:23.231Z,27.00
2023-02-26T10:42:56.902Z,27.00
2023-02-26T10:45:30.685Z,26.90
2023-02-26T10:48:10.469Z,26.90
2023-02-26T10:50:41.405Z,26.90
2023-02-26T10:53:12.249Z,26.90
2023-02-26T10:55:45.863Z,26.90
2023-02-26T10:58:16.753Z,26.80
2023-02-26T11:00:48.035Z,26.80
2023-02-26T11:03:18.935Z,26.80
2023-02-26T11:05:49.922Z,26.70
2023-02-26T11:08:36.272Z,26.70
2023-02-26T11:11:07.009Z,26.70
2023-02-26T11:13:37.934Z,26.70
2023-02-26T11:16:08.668Z,26.70
2023-02-26T11:18:39.677Z,26.60
2023-02-26T11:21:10.183Z,26.60
2023-02-26T11:23:40.972Z,26.60
2023-02-26T11:26:11.822Z,26.60
2023-02-26T11:28:42.695Z,26.50
2023-02-26T11:31:13.524Z,26.50
2023-02-26T11:33:44.979Z,26.50
2023-02-26T11:36:18.895Z,26.50
2023-02-26T11:38:49.734Z,26.40
2023-02-26T11:41:20.975Z,26.40
2023-02-26T11:43:51.977Z,26.30
2023-02-26T11:46:22.890Z,26.30
2023-02-26T11:48:53.037Z,26.20
2023-02-26T11:51:24.128Z,26.10
2023-02-26T11:53:55.331Z,26.00
2023-02-26T11:56:29.328Z,25.90
2023-02-26T11:59:00.293Z,25.90
2023-02-26T12:01:31.117Z,25.80
2023-02-26T12:04:02.128Z,25.60
2023-02-26T12:06:35.017Z,25.50
2023-02-26T12:09:05.172Z,25.50
2023-02-26T12:11:36.005Z,25.40
2023-02-26T12:14:23.492Z,25.40
2023-02-26T12:17:03.519Z,25.30
2023-02-26T12:19:37.175Z,25.20
2023-02-26T12:22:08.065Z,25.20
2023-02-26T12:24:54.013Z,25.20
2023-02-26T12:27:28.265Z,25.10
2023-02-26T12:30:11.558Z,25.10
2023-02-26T12:32:48.663Z,25.00
2023-02-26T12:35:22.306Z,25.00
2023-02-26T12:38:02.225Z,25.00
2023-02-26T12:40:48.248Z,24.90
2023-02-26T12:43:25.144Z,24.90
2023-02-26T12:46:00.625Z,25.00
2023-02-26T12:48:51.563Z,25.00
2023-02-26T12:51:37.942Z,25.00
2023-02-26T12:54:25.025Z,25.00
2023-02-26T12:57:01.812Z,25.00
2023-02-26T12:59:32.979Z,24.90
2023-02-26T13:02:06.747Z,24.90
2023-02-26T13:04:41.156Z,24.90
2023-02-26T13:07:28.664Z,24.80
2023-02-26T13:10:04.149Z,24.80
2023-02-26T13:12:35.020Z,24.80
2023-02-26T13:15:06.023Z,24.80
2023-02-26T13:17:49.282Z,24.70
2023-02-26T13:20:22.567Z,24.70
2023-02-26T13:22:56.617Z,24.60
2023-02-26T13:25:27.491Z,24.60
2023-02-26T13:27:58.580Z,24.60
2023-02-26T13:30:29.522Z,24.60
2023-02-26T13:33:00.762Z,24.60
2023-02-26T13:35:31.747Z,24.50
2023-02-26T13:38:02.668Z,24.50
2023-02-26T13:40:33.578Z,24.40
2023-02-26T13:43:04.488Z,24.40
2023-02-26T13:45:38.144Z,24.40
2023-02-26T13:48:24.111Z,24.30
2023-02-26T13:51:09.619Z,24.30
2023-02-26T13:53:40.592Z,24.30
2023-02-26T13:56:11.426Z,24.20
2023-02-26T13:58:41.813Z,24.20
2023-02-26T14:01:21.566Z,24.20
2023-02-26T14:03:52.499Z,24.10
2023-02-26T14:06:42.043Z,24.10
2023-02-26T14:09:28.604Z,24.10
2023-02-26T14:12:04.047Z,24.00
2023-02-26T14:14:37.966Z,24.00
2023-02-26T14:17:11.760Z,23.90
2023-02-26T14:19:42.710Z,23.90
2023-02-26T14:22:24.320Z,23.80
2023-02-26T14:24:55.382Z,23.90
2023-02-26T14:27:27.596Z,23.80
2023-02-26T14:30:01.797Z,23.80
2023-02-26T14:32:49.515Z,23.80
2023-02-26T14:35:29.636Z,23.70
2023-02-26T14:38:00.612Z,23.70
2023-02-26T14:40:31.819Z,23.70
2023-02-26T14:43:02.802Z,23.70
2023-02-26T14:45:33.954Z,23.60
2023-02-26T14:48:05.134Z,23.60
2023-02-26T14:50:52.432Z,23.50
2023-02-26T14:56:39.318Z,23.50
2023-02-26T14:59:26.713Z,23.40
2023-02-26T15:02:17.545Z,23.40
2023-02-26T15:04:48.625Z,23.30
2023-02-26T15:07:36.667Z,23.30
2023-02-26T15:10:10.948Z,23.30
2023-02-26T15:12:42.174Z,23.30
2023-02-26T15:15:19.029Z,23.20
2023-02-26T15:17:52.953Z,23.10
2023-02-26T15:20:28.055Z,23.10
2023-02-26T15:23:08.339Z,23.10
2023-02-26T15:25:39.298Z,23.00
2023-02-26T15:28:09.641Z,23.00
2023-02-26T15:30:39.674Z,23.00
2023-02-26T15:33:10.706Z,23.00
2023-02-26T15:35:40.413Z,23.00
2023-02-26T15:38:11.289Z,23.00
2023-02-26T15:40:41.754Z,22.90
2023-02-26T15:43:12.040Z,22.90
2023-02-26T15:45:49.412Z,22.90
2023-02-26T15:48:20.388Z,22.90
2023-02-26T15:50:52.771Z,22.80
2023-02-26T15:53:23.737Z,22.70
2023-02-26T15:55:54.762Z,22.70
2023-02-26T15:58:34.678Z,22.70
2023-02-26T16:01:05.124Z,22.70
2023-02-26T16:03:36.132Z,22.60
2023-02-26T16:06:06.207Z,22.60
2023-02-26T16:08:36.087Z,22.60
2023-02-26T16:11:07.100Z,22.60
2023-02-26T16:13:40.786Z,22.50
2023-02-26T16:16:11.986Z,22.50
2023-02-26T16:18:42.754Z,22.50
2023-02-26T16:21:13.869Z,22.40
2023-02-26T16:23:47.759Z,22.40
2023-02-26T16:26:21.494Z,22.40
2023-02-26T16:28:52.561Z,22.40
2023-02-26T16:31:23.602Z,22.40
2023-02-26T16:33:57.880Z,22.40
2023-02-26T16:36:29.468Z,22.40
2023-02-26T16:39:00.506Z,22.30
2023-02-26T16:41:31.507Z,22.30
2023-02-26T16:44:02.485Z,22.30
2023-02-26T16:46:36.764Z,22.30
2023-02-26T16:49:07.747Z,22.30
2023-02-26T16:51:41.257Z,22.20
2023-02-26T16:54:16.469Z,22.20
2023-02-26T16:56:47.448Z,22.20
2023-02-26T16:59:22.703Z,22.20
2023-02-26T17:01:53.696Z,22.10
2023-02-26T17:04:24.895Z,22.10
2023-02-26T17:06:54.671Z,22.10
2023-02-26T17:09:38.792Z,22.10
2023-02-26T17:12:15.673Z,22.10
2023-02-26T17:14:47.189Z,22.10
2023-02-26T17:17:17.005Z,22.00
2023-02-26T17:19:46.772Z,22.00
2023-02-26T17:22:17.729Z,22.00
2023-02-26T17:24:48.802Z,21.90
2023-02-26T17:27:19.801Z,21.90
2023-02-26T17:29:51.900Z,21.80
2023-02-26T17:32:23.517Z,21.80
2023-02-26T17:34:53.312Z,21.80
2023-02-26T17:37:23.391Z,21.80
2023-02-26T17:39:53.224Z,21.80
2023-02-26T17:42:23.995Z,21.80
2023-02-26T17:44:55.576Z,21.80
2023-02-26T17:47:29.238Z,21.70
2023-02-26T17:49:59.038Z,21.70
2023-02-26T17:52:28.805Z,21.70
2023-02-26T17:54:58.609Z,21.70
2023-02-26T17:57:29.314Z,21.70
2023-02-26T17:59:59.128Z,21.60
2023-02-26T18:02:28.905Z,21.60
2023-02-26T18:04:58.747Z,21.60
2023-02-26T18:07:31.165Z,21.60
2023-02-26T18:09:59.899Z,21.50
2023-02-26T18:12:29.699Z,21.40
2023-02-26T18:14:59.503Z,21.40
2023-02-26T18:17:35.282Z,21.40
2023-02-26T18:20:06.541Z,21.40
2023-02-26T18:22:36.268Z,21.40
2023-02-26T18:25:06.256Z,21.30
2023-02-26T18:27:37.874Z,21.30
2023-02-26T18:30:11.500Z,21.20
2023-02-26T18:32:41.432Z,21.20
2023-02-26T18:35:11.626Z,21.10
2023-02-26T18:37:41.565Z,21.10
2023-02-26T18:40:14.519Z,21.10
2023-02-26T18:42:44.016Z,21.00
2023-02-26T18:45:24.302Z,21.00
2023-02-26T18:47:54.252Z,20.90
2023-02-26T18:50:31.881Z,20.90
2023-02-26T18:52:55.532Z,20.90
2023-02-26T18:55:25.325Z,20.90
2023-02-26T18:57:55.100Z,20.90
2023-02-26T19:00:24.926Z,20.80
2023-02-26T19:02:55.124Z,20.80
2023-02-26T19:05:25.856Z,20.80
2023-02-26T19:07:56.006Z,20.80
2023-02-26T19:10:25.892Z,20.80
2023-02-26T19:12:55.641Z,20.80
2023-02-26T19:15:25.826Z,20.80
2023-02-26T19:17:56.047Z,20.70
2023-02-26T19:20:25.791Z,20.70
2023-02-26T19:22:55.650Z,20.70
2023-02-26T19:25:26.811Z,20.70
2023-02-26T19:27:57.908Z,20.60
2023-02-26T19:30:27.632Z,20.60
2023-02-26T19:32:57.644Z,20.50
2023-02-26T19:35:31.481Z,20.60
2023-02-26T19:41:10.732Z,20.50
2023-02-26T19:43:40.442Z,20.50
2023-02-26T19:46:10.200Z,20.50
2023-02-26T19:48:40.490Z,20.50
2023-02-26T19:51:10.317Z,20.50
2023-02-26T19:53:40.137Z,20.50
2023-02-26T19:56:10.626Z,20.40
2023-02-26T19:58:40.442Z,20.50
2023-02-26T20:01:10.262Z,20.40
2023-02-26T20:03:39.970Z,20.40
2023-02-26T20:06:11.125Z,20.40
2023-02-26T20:08:41.025Z,20.40
2023-02-26T20:11:10.939Z,20.40
2023-02-26T20:13:40.629Z,20.40
2023-02-26T20:16:11.814Z,20.40
2023-02-26T20:18:42.234Z,20.30
2023-02-26T20:21:12.252Z,20.30
2023-02-26T20:23:42.351Z,20.30
2023-02-26T20:26:13.342Z,20.30
2023-02-26T20:28:43.319Z,20.30
2023-02-26T20:31:13.708Z,20.20
2023-02-26T20:33:43.606Z,20.20
2023-02-26T20:36:13.179Z,20.20
2023-02-26T20:38:44.084Z,20.10
2023-02-26T20:41:13.968Z,20.10
2023-02-26T20:43:46.589Z,20.10
2023-02-26T20:46:16.347Z,20.10
2023-02-26T20:48:46.116Z,20.10
2023-02-26T20:51:16.630Z,20.00
2023-02-26T20:53:46.918Z,20.00
2023-02-26T20:56:16.596Z,20.00
2023-02-26T20:58:46.200Z,20.00
2023-02-26T21:01:16.110Z,19.90
2023-02-26T21:03:45.712Z,19.90
2023-02-26T21:06:15.495Z,19.90
2023-02-26T21:08:45.245Z,19.90
2023-02-26T21:11:15.002Z,19.90
2023-02-26T21:13:45.943Z,19.90
2023-02-26T21:16:15.787Z,19.80
2023-02-26T21:18:45.654Z,19.80
2023-02-26T21:21:15.489Z,19.80
2023-02-26T21:23:45.394Z,19.80
2023-02-26T21:26:18.133Z,19.80
2023-02-26T21:28:49.399Z,19.80
2023-02-26T21:31:20.035Z,19.70
2023-02-26T21:33:49.772Z,19.70
2023-02-26T21:36:20.724Z,19.70
2023-02-26T21:38:50.497Z,19.70
2023-02-26T21:41:21.511Z,19.70
2023-02-26T21:43:51.082Z,19.70
2023-02-26T21:46:20.761Z,19.70
2023-02-26T21:48:51.834Z,19.70
2023-02-26T21:51:22.501Z,19.70
2023-02-26T21:53:52.234Z,19.70
2023-02-26T21:56:21.828Z,19.70
2023-02-26T21:58:51.388Z,19.70
2023-02-26T22:01:21.038Z,19.70
2023-02-26T22:03:51.069Z,19.70
2023-02-26T22:06:20.903Z,19.70
2023-02-26T22:08:50.673Z,19.70
2023-02-26T22:11:20.234Z,19.70
2023-02-26T22:13:50.129Z,19.70
2023-02-26T22:16:19.948Z,19.60
2023-02-26T22:18:49.710Z,19.60
2023-02-26T22:21:19.426Z,19.60
2023-02-26T22:23:49.467Z,19.50
2023-02-26T22:26:19.276Z,19.50
2023-02-26T22:28:49.074Z,19.50
2023-02-26T22:31:18.711Z,19.40
2023-02-26T22:33:48.454Z,19.40
2023-02-26T22:36:18.158Z,19.40
2023-02-26T22:38:47.965Z,19.40
2023-02-26T22:41:17.869Z,19.40
2023-02-26T22:43:47.563Z,19.40
2023-02-26T22:46:18.083Z,19.40
2023-02-26T22:48:47.851Z,19.40
2023-02-26T22:51:17.508Z,19.40
2023-02-26T22:53:47.229Z,19.40
2023-02-26T22:56:17.425Z,19.40
2023-02-26T22:58:47.120Z,19.40
2023-02-26T23:01:16.805Z,19.30
2023-02-26T23:03:46.687Z,19.30
2023-02-26T23:06:16.504Z,19.30
2023-02-26T23:08:46.491Z,19.20
2023-02-26T23:11:16.058Z,19.30
2023-02-26T23:13:47.137Z,19.20
2023-02-26T23:16:17.035Z,19.20
2023-02-26T23:18:48.256Z,19.20
2023-02-26T23:21:18.111Z,19.20
2023-02-26T23:23:47.733Z,19.20
2023-02-26T23:26:17.948Z,19.20
2023-02-26T23:28:47.787Z,19.20
2023-02-26T23:31:17.643Z,19.20
2023-02-26T23:33:47.545Z,19.20
2023-02-26T23:36:17.262Z,19.20
2023-02-26T23:38:47.105Z,19.20
2023-02-26T23:41:16.787Z,19.10
2023-02-26T23:43:46.603Z,19.20
2023-02-26T23:46:16.394Z,19.20
2023-02-26T23:48:46.173Z,19.20
2023-02-26T23:51:16.473Z,19.10
2023-02-26T23:53:46.178Z,19.20
2023-02-26T23:56:15.866Z,19.20
2023-02-26T23:58:45.600Z,19.20
